Impacts TAF Board
For situational awareness. Not to be used for flight planning purposes.
IDs:

KFLL - Ft Lauderdale-Hollyw, FL, US

Issued at 1720 UTC 21 Sep 2021
Updated at 2005 UTC 21 Sep 2021
Potential Impact None Slight Moderate High
Time1953Z 21/21Z 21/22Z 21/23Z 22/00Z 22/01Z 22/02Z 22/03Z 22/04Z 22/05Z 22/06Z 22/07Z 22/08Z 22/09Z>>
Type OBS PRVL PRVL PRVL PRVL PRVL PRVL PRVL PRVL PRVL PRVL PRVL PRVL PRVL
VIS 10 >6 >6 >6 >6 >6 >6 >6 >6 >6 >6 >6 >6 >6
CIG -- 50 50 50 -- -- -- -- -- -- -- -- -- --
Cover SCT BKN BKN BKN SCT SCT SCT SCT SCT SCT SCT SCT SCT SCT
FltCat VFR VFR VFR VFR VFR VFR VFR VFR VFR VFR VFR VFR VFR VFR
WX TS VCTS VCTS VCTS -- -- -- -- -- -- -- -- -- --
WDir 60 100 100 100 VRB VRB VRB VRB VRB VRB VRB VRB VRB VRB
WSpd 6 10 10 10 5 5 5 5 5 5 5 5 5 5
WGst -- -- -- -- -- -- -- -- -- -- -- -- -- --
Raw TAF
KFLL 211720Z 2118/2224 10010KT P6SM VCTS SCT030CB BKN050
  FM220000 VRB05KT P6SM FEW025 SCT250
  FM221400 12007KT P6SM SCT030 SCT050
  FM221700 16010KT P6SM VCTS SCT030CB BKN050


Raw METAR
KFLL 211953Z 06006KT 10SM TS FEW021 FEW028CB FEW110 SCT150 BKN200 BKN250 29/27 A2999 RMK AO2 LTG DSNT SW AND W TSB53 SLP156 OCNL LTGICCG SW TS SW MOV NW CB DSNT SW T02890272
KFLL 211938Z 04006KT 10SM FEW021 SCT030 SCT150 BKN200 BKN250 29/27 A2999 RMK AO2 LTG DSNT SW AND W CB DSNT S AND SW MOV NW T02940272
KFLL 211923Z 06005KT 10SM VCTS FEW030 SCT150 BKN180 OVC250 29/27 A2999 RMK AO2 LTG DSNT SW CB DSNT SW MON NW T02940272
KFLL 211853Z 07004KT 10SM FEW029 BKN120 OVC250 29/27 A3000 RMK AO2 LTG DSNT SW SLP158 CB DSNT S T02940267
KFLL 211753Z 03003KT 10SM FEW030 BKN120 OVC250 28/27 A3001 RMK AO2 RAE17 SLP160 P0000 60010 T02780272 10278 20244 58012

METAR Board
Radar Display
Forecast Discussion
For situational awareness. Not to be used for flight planning purposes.